Bookmark and Share
Track history (hours):
 

Northsea Beta

Last reported at 2014-Apr-23 15:33 UTC. Time now 2014-Apr-23 15:40 UTC.
Position N 51°24' E 003°01'.

Length 110 m; draft 7.2 m.

Type: Ship. MMSI: 248970000.

NotesDate/timePositionNaut miles runAvg speedWind from/ knotsBaromVisibWave heightAir tempDewpointWater temp
2014-Apr-23 15:33N 51°24' E 003°01'10 9.5
2014-Apr-23 14:33N 51°21' E 002°46'9 8.9
2014-Apr-23 13:33N 51°22' E 002°32'9 8.5
2014-Apr-23 12:33N 51°19' E 002°19'9 9.3
2014-Apr-23 11:34N 51°14' E 002°06'10 9.6
2014-Apr-23 10:32N 51°10' E 001°52'1010.3
2014-Apr-23 09:32N 51°02' E 001°40'2411.0
2014-Apr-23 07:22N 50°42' E 001°21'2011.1
2014-Apr-23 05:33N 50°29' E 000°57'1111.0
2014-Apr-23 04:33N 50°26' E 000°41'1111.2
2014-Apr-23 03:33N 50°23' E 000°24'1211.8
2014-Apr-23 02:31N 50°20' E 000°05'  
2014-Apr-19 12:04N 38°14' W 009°28'510.4
2014-Apr-19 11:33N 38°11' W 009°23'1110.6
2014-Apr-19 10:33N 38°05' W 009°12'1110.8
2014-Apr-19 09:33N 37°59' W 009°01'7 6.0
2014-Apr-19 08:28N 37°57' W 008°53'0 0.0
2014-Apr-19 07:31N 37°57' W 008°53'0 0.0
2014-Apr-19 06:31N 37°57' W 008°53'0 0.0
2014-Apr-19 05:31N 37°57' W 008°53'0 0.0
2014-Apr-19 04:31N 37°57' W 008°53'0 0.0
2014-Apr-19 03:31N 37°57' W 008°53'0 0.0
2014-Apr-19 02:31N 37°57' W 008°53'0 0.0
2014-Apr-19 01:31N 37°57' W 008°53'0 0.0
2014-Apr-19 00:31N 37°57' W 008°53'0 0.0
2014-Apr-18 23:31N 37°57' W 008°53'0 0.0
2014-Apr-18 22:31N 37°57' W 008°53'0 0.0
2014-Apr-18 21:31N 37°57' W 008°53'0 0.0
2014-Apr-18 20:32N 37°57' W 008°53'0 0.0
2014-Apr-18 19:33N 37°57' W 008°53'0 0.0
2014-Apr-18 18:33N 37°57' W 008°53'0 0.0
2014-Apr-18 17:33N 37°57' W 008°53'0 0.0
2014-Apr-18 16:33N 37°57' W 008°53'0 0.0
2014-Apr-18 15:33N 37°57' W 008°53'0 0.0
2014-Apr-18 14:33N 37°57' W 008°53'0 0.0
2014-Apr-18 13:33N 37°57' W 008°53'0 0.0
2014-Apr-18 12:33N 37°57' W 008°53'0 0.0
2014-Apr-18 11:33N 37°57' W 008°53'0 0.0
2014-Apr-18 10:33N 37°57' W 008°53'0 0.0
2014-Apr-18 09:33N 37°57' W 008°53'0 0.0
2014-Apr-18 08:33N 37°57' W 008°53'0 0.3
2014-Apr-18 07:33N 37°57' W 008°53'6 6.5
2014-Apr-18 06:33N 37°51' W 008°57'1010.6
2014-Apr-18 05:33N 37°43' W 009°05'1 1.0
2014-Apr-18 04:33N 37°43' W 009°04'1210.9
2014-Apr-18 03:29N 37°34' W 009°13'3710.7
2014-Apr-18 00:04N 37°05' W 009°42'610.9
2014-Apr-17 23:32N 37°01' W 009°46'2210.8
2014-Apr-17 21:33N 36°40' W 009°41'  
2014-Apr-13 21:33N 35°59' W 005°34'10 9.8
2014-Apr-13 20:33N 36°01' W 005°23'1110.6
2014-Apr-13 19:33N 36°03' W 005°10'  

Dump ship's entire track history

sailing weather and tide predictions

Northsea Beta — 9HA2594 — position and weather